sensor_id;sensor_type;location;lat;lon;timestamp;P1;durP1;ratioP1;P2;durP2;ratioP2
23804;SDS011;12083;52.098;7.582;2022-09-09T00:00:30;4.30;;;1.50;;
23804;SDS011;12083;52.098;7.582;2022-09-09T00:03:12;8.33;;;1.40;;
23804;SDS011;12083;52.098;7.582;2022-09-09T00:08:22;7.53;;;1.57;;
23804;SDS011;12083;52.098;7.582;2022-09-09T00:10:58;4.53;;;1.40;;
23804;SDS011;12083;52.098;7.582;2022-09-09T00:13:48;11.33;;;2.60;;
23804;SDS011;12083;52.098;7.582;2022-09-09T00:16:19;3.07;;;1.60;;
23804;SDS011;12083;52.098;7.582;2022-09-09T00:21:30;4.07;;;1.73;;
23804;SDS011;12083;52.098;7.582;2022-09-09T00:24:00;4.10;;;1.93;;
23804;SDS011;12083;52.098;7.582;2022-09-09T00:26:35;5.40;;;1.80;;
23804;SDS011;12083;52.098;7.582;2022-09-09T00:29:19;5.77;;;1.53;;
23804;SDS011;12083;52.098;7.582;2022-09-09T00:31:56;11.53;;;2.60;;
23804;SDS011;12083;52.098;7.582;2022-09-09T00:34:30;6.80;;;1.80;;
23804;SDS011;12083;52.098;7.582;2022-09-09T00:36:57;2.60;;;1.53;;
23804;SDS011;12083;52.098;7.582;2022-09-09T00:39:40;3.67;;;1.90;;
23804;SDS011;12083;52.098;7.582;2022-09-09T00:42:23;8.20;;;1.80;;
23804;SDS011;12083;52.098;7.582;2022-09-09T00:45:00;2.30;;;1.63;;
23804;SDS011;12083;52.098;7.582;2022-09-09T00:47:49;5.30;;;1.60;;
23804;SDS011;12083;52.098;7.582;2022-09-09T00:50:19;5.47;;;1.53;;
23804;SDS011;12083;52.098;7.582;2022-09-09T00:52:58;3.80;;;1.00;;
23804;SDS011;12083;52.098;7.582;2022-09-09T00:58:25;1.83;;;1.03;;
23804;SDS011;12083;52.098;7.582;2022-09-09T01:01:06;3.53;;;1.07;;
23804;SDS011;12083;52.098;7.582;2022-09-09T01:06:31;5.60;;;1.00;;
23804;SDS011;12083;52.098;7.582;2022-09-09T01:12:48;3.17;;;1.20;;
23804;SDS011;12083;52.098;7.582;2022-09-09T01:14:48;0.70;;;0.70;;
23804;SDS011;12083;52.098;7.582;2022-09-09T01:17:20;2.70;;;1.10;;
23804;SDS011;12083;52.098;7.582;2022-09-09T01:22:44;1.03;;;0.73;;
23804;SDS011;12083;52.098;7.582;2022-09-09T01:28:25;1.87;;;0.90;;
23804;SDS011;12083;52.098;7.582;2022-09-09T01:30:57;1.30;;;0.80;;
23804;SDS011;12083;52.098;7.582;2022-09-09T01:33:26;1.27;;;1.03;;
23804;SDS011;12083;52.098;7.582;2022-09-09T01:35:54;2.10;;;1.00;;
23804;SDS011;12083;52.098;7.582;2022-09-09T01:38:27;1.80;;;1.10;;
23804;SDS011;12083;52.098;7.582;2022-09-09T01:40:54;3.67;;;2.20;;
23804;SDS011;12083;52.098;7.582;2022-09-09T01:43:26;2.30;;;1.30;;
23804;SDS011;12083;52.098;7.582;2022-09-09T01:45:53;2.73;;;1.40;;
23804;SDS011;12083;52.098;7.582;2022-09-09T01:48:21;2.23;;;1.40;;
23804;SDS011;12083;52.098;7.582;2022-09-09T01:50:59;3.60;;;1.47;;
23804;SDS011;12083;52.098;7.582;2022-09-09T01:53:25;3.33;;;1.70;;
23804;SDS011;12083;52.098;7.582;2022-09-09T01:58:37;2.93;;;1.90;;
23804;SDS011;12083;52.098;7.582;2022-09-09T02:01:25;4.87;;;2.07;;
23804;SDS011;12083;52.098;7.582;2022-09-09T02:03:58;2.10;;;1.90;;
23804;SDS011;12083;52.098;7.582;2022-09-09T02:06:35;6.20;;;1.90;;
23804;SDS011;12083;52.098;7.582;2022-09-09T02:09:24;4.07;;;1.90;;
23804;SDS011;12083;52.098;7.582;2022-09-09T02:11:55;5.73;;;1.90;;
23804;SDS011;12083;52.098;7.582;2022-09-09T02:14:59;4.83;;;2.00;;
23804;SDS011;12083;52.098;7.582;2022-09-09T02:17:38;11.90;;;2.20;;
23804;SDS011;12083;52.098;7.582;2022-09-09T02:20:13;2.97;;;2.23;;
23804;SDS011;12083;52.098;7.582;2022-09-09T02:22:45;5.93;;;1.83;;
23804;SDS011;12083;52.098;7.582;2022-09-09T02:25:17;2.80;;;1.47;;
23804;SDS011;12083;52.098;7.582;2022-09-09T02:27:49;3.73;;;1.50;;
23804;SDS011;12083;52.098;7.582;2022-09-09T02:30:16;6.93;;;1.73;;
23804;SDS011;12083;52.098;7.582;2022-09-09T02:32:50;6.80;;;1.70;;
23804;SDS011;12083;52.098;7.582;2022-09-09T02:35:23;4.83;;;1.67;;
23804;SDS011;12083;52.098;7.582;2022-09-09T02:37:52;2.20;;;1.70;;
23804;SDS011;12083;52.098;7.582;2022-09-09T02:40:21;3.40;;;1.70;;
23804;SDS011;12083;52.098;7.582;2022-09-09T02:42:54;3.80;;;1.37;;
23804;SDS011;12083;52.098;7.582;2022-09-09T02:45:23;6.77;;;2.43;;
23804;SDS011;12083;52.098;7.582;2022-09-09T02:47:59;3.83;;;1.60;;
23804;SDS011;12083;52.098;7.582;2022-09-09T02:50:37;3.57;;;1.63;;
23804;SDS011;12083;52.098;7.582;2022-09-09T02:53:46;5.53;;;1.60;;
23804;SDS011;12083;52.098;7.582;2022-09-09T02:56:34;3.03;;;1.60;;
23804;SDS011;12083;52.098;7.582;2022-09-09T02:59:05;9.60;;;1.90;;
23804;SDS011;12083;52.098;7.582;2022-09-09T03:01:33;3.37;;;1.40;;
23804;SDS011;12083;52.098;7.582;2022-09-09T03:04:02;2.90;;;1.50;;
23804;SDS011;12083;52.098;7.582;2022-09-09T03:06:30;3.37;;;1.60;;
23804;SDS011;12083;52.098;7.582;2022-09-09T03:09:05;5.20;;;2.07;;
23804;SDS011;12083;52.098;7.582;2022-09-09T03:11:31;6.33;;;1.77;;
23804;SDS011;12083;52.098;7.582;2022-09-09T03:13:57;3.10;;;1.80;;
23804;SDS011;12083;52.098;7.582;2022-09-09T03:16:24;3.37;;;1.57;;
23804;SDS011;12083;52.098;7.582;2022-09-09T03:18:52;5.57;;;1.80;;
23804;SDS011;12083;52.098;7.582;2022-09-09T03:21:19;1.93;;;1.70;;
23804;SDS011;12083;52.098;7.582;2022-09-09T03:23:45;2.40;;;1.80;;
23804;SDS011;12083;52.098;7.582;2022-09-09T03:26:12;1.97;;;1.77;;
23804;SDS011;12083;52.098;7.582;2022-09-09T03:28:43;2.37;;;2.03;;
23804;SDS011;12083;52.098;7.582;2022-09-09T03:31:11;6.83;;;2.10;;
23804;SDS011;12083;52.098;7.582;2022-09-09T03:33:39;3.70;;;1.73;;
23804;SDS011;12083;52.098;7.582;2022-09-09T03:36:09;2.40;;;1.60;;
23804;SDS011;12083;52.098;7.582;2022-09-09T03:38:35;2.87;;;1.50;;
23804;SDS011;12083;52.098;7.582;2022-09-09T03:41:00;2.93;;;1.60;;
23804;SDS011;12083;52.098;7.582;2022-09-09T03:43:28;5.50;;;1.60;;
23804;SDS011;12083;52.098;7.582;2022-09-09T03:45:54;2.30;;;1.50;;
23804;SDS011;12083;52.098;7.582;2022-09-09T03:48:25;7.00;;;2.00;;
23804;SDS011;12083;52.098;7.582;2022-09-09T03:50:53;11.60;;;2.63;;
23804;SDS011;12083;52.098;7.582;2022-09-09T03:53:21;5.03;;;1.60;;
23804;SDS011;12083;52.098;7.582;2022-09-09T03:55:50;6.10;;;1.60;;
23804;SDS011;12083;52.098;7.582;2022-09-09T03:58:22;2.03;;;1.50;;
23804;SDS011;12083;52.098;7.582;2022-09-09T04:00:54;2.40;;;1.47;;
23804;SDS011;12083;52.098;7.582;2022-09-09T04:03:26;1.53;;;1.43;;
23804;SDS011;12083;52.098;7.582;2022-09-09T04:05:52;7.20;;;1.63;;
23804;SDS011;12083;52.098;7.582;2022-09-09T04:08:19;7.57;;;1.60;;
23804;SDS011;12083;52.098;7.582;2022-09-09T04:10:47;5.17;;;1.83;;
23804;SDS011;12083;52.098;7.582;2022-09-09T04:13:15;6.00;;;2.20;;
23804;SDS011;12083;52.098;7.582;2022-09-09T05:01:06;5.03;;;2.87;;
23804;SDS011;12083;52.098;7.582;2022-09-09T05:03:33;6.60;;;3.17;;
23804;SDS011;12083;52.098;7.582;2022-09-09T05:06:04;3.77;;;2.70;;
23804;SDS011;12083;52.098;7.582;2022-09-09T05:08:31;11.20;;;3.37;;
23804;SDS011;12083;52.098;7.582;2022-09-09T05:10:57;7.47;;;3.13;;
23804;SDS011;12083;52.098;7.582;2022-09-09T05:13:25;8.73;;;3.33;;
23804;SDS011;12083;52.098;7.582;2022-09-09T05:15:52;7.00;;;3.33;;
23804;SDS011;12083;52.098;7.582;2022-09-09T05:18:19;5.73;;;3.43;;
23804;SDS011;12083;52.098;7.582;2022-09-09T05:20:44;3.50;;;3.00;;
23804;SDS011;12083;52.098;7.582;2022-09-09T05:23:10;5.60;;;3.23;;
23804;SDS011;12083;52.098;7.582;2022-09-09T05:25:40;10.67;;;3.70;;
23804;SDS011;12083;52.098;7.582;2022-09-09T05:28:07;14.43;;;3.27;;
23804;SDS011;12083;52.098;7.582;2022-09-09T05:30:33;6.97;;;3.37;;
23804;SDS011;12083;52.098;7.582;2022-09-09T05:33:00;7.20;;;3.07;;
23804;SDS011;12083;52.098;7.582;2022-09-09T05:35:26;9.23;;;3.37;;
23804;SDS011;12083;52.098;7.582;2022-09-09T05:37:52;4.20;;;3.80;;
23804;SDS011;12083;52.098;7.582;2022-09-09T05:40:18;5.53;;;3.40;;
23804;SDS011;12083;52.098;7.582;2022-09-09T05:42:44;8.93;;;3.20;;
23804;SDS011;12083;52.098;7.582;2022-09-09T05:45:10;6.07;;;2.67;;
23804;SDS011;12083;52.098;7.582;2022-09-09T05:47:37;3.63;;;2.87;;
23804;SDS011;12083;52.098;7.582;2022-09-09T05:50:05;9.97;;;3.33;;
23804;SDS011;12083;52.098;7.582;2022-09-09T05:52:31;9.20;;;3.27;;
23804;SDS011;12083;52.098;7.582;2022-09-09T05:54:58;6.70;;;2.80;;
23804;SDS011;12083;52.098;7.582;2022-09-09T05:57:25;9.83;;;2.63;;
23804;SDS011;12083;52.098;7.582;2022-09-09T05:59:50;5.27;;;3.10;;
23804;SDS011;12083;52.098;7.582;2022-09-09T06:02:16;5.53;;;2.63;;
23804;SDS011;12083;52.098;7.582;2022-09-09T06:04:42;8.47;;;2.80;;
23804;SDS011;12083;52.098;7.582;2022-09-09T06:07:07;6.40;;;2.40;;
23804;SDS011;12083;52.098;7.582;2022-09-09T06:09:34;7.90;;;2.90;;
23804;SDS011;12083;52.098;7.582;2022-09-09T06:12:00;4.30;;;2.60;;
23804;SDS011;12083;52.098;7.582;2022-09-09T06:14:26;4.70;;;2.40;;
23804;SDS011;12083;52.098;7.582;2022-09-09T06:16:53;8.70;;;2.50;;
23804;SDS011;12083;52.098;7.582;2022-09-09T06:19:21;7.23;;;2.20;;
23804;SDS011;12083;52.098;7.582;2022-09-09T06:21:49;7.63;;;2.30;;
23804;SDS011;12083;52.098;7.582;2022-09-09T06:24:16;7.63;;;2.60;;
23804;SDS011;12083;52.098;7.582;2022-09-09T06:26:43;8.20;;;2.53;;
23804;SDS011;12083;52.098;7.582;2022-09-09T06:29:17;7.23;;;1.73;;
23804;SDS011;12083;52.098;7.582;2022-09-09T06:31:44;5.70;;;2.20;;
23804;SDS011;12083;52.098;7.582;2022-09-09T06:34:15;3.00;;;2.70;;
23804;SDS011;12083;52.098;7.582;2022-09-09T06:36:45;5.00;;;2.70;;
23804;SDS011;12083;52.098;7.582;2022-09-09T06:39:11;6.47;;;2.07;;
23804;SDS011;12083;52.098;7.582;2022-09-09T06:41:38;5.30;;;2.80;;
23804;SDS011;12083;52.098;7.582;2022-09-09T06:44:07;6.93;;;2.50;;
23804;SDS011;12083;52.098;7.582;2022-09-09T06:46:39;4.67;;;2.23;;
23804;SDS011;12083;52.098;7.582;2022-09-09T06:49:07;5.10;;;1.80;;
23804;SDS011;12083;52.098;7.582;2022-09-09T06:51:35;4.13;;;2.37;;
23804;SDS011;12083;52.098;7.582;2022-09-09T06:54:03;11.87;;;2.47;;
23804;SDS011;12083;52.098;7.582;2022-09-09T06:56:30;7.60;;;2.20;;
23804;SDS011;12083;52.098;7.582;2022-09-09T06:59:01;4.00;;;1.83;;
23804;SDS011;12083;52.098;7.582;2022-09-09T07:01:34;2.37;;;2.17;;
23804;SDS011;12083;52.098;7.582;2022-09-09T07:04:04;4.20;;;1.90;;
23804;SDS011;12083;52.098;7.582;2022-09-09T07:06:34;9.50;;;2.17;;
23804;SDS011;12083;52.098;7.582;2022-09-09T07:09:06;6.87;;;2.07;;
23804;SDS011;12083;52.098;7.582;2022-09-09T07:11:36;6.30;;;2.00;;
23804;SDS011;12083;52.098;7.582;2022-09-09T07:14:04;5.93;;;2.00;;
23804;SDS011;12083;52.098;7.582;2022-09-09T07:16:30;6.10;;;2.07;;
23804;SDS011;12083;52.098;7.582;2022-09-09T07:18:59;6.43;;;1.97;;
23804;SDS011;12083;52.098;7.582;2022-09-09T07:21:26;4.90;;;1.93;;
23804;SDS011;12083;52.098;7.582;2022-09-09T07:23:53;9.83;;;3.90;;
23804;SDS011;12083;52.098;7.582;2022-09-09T07:26:20;7.47;;;2.00;;
23804;SDS011;12083;52.098;7.582;2022-09-09T07:28:50;10.23;;;2.10;;
23804;SDS011;12083;52.098;7.582;2022-09-09T07:33:47;6.53;;;1.93;;
23804;SDS011;12083;52.098;7.582;2022-09-09T07:38:53;13.33;;;2.13;;
23804;SDS011;12083;52.098;7.582;2022-09-09T07:41:21;5.80;;;2.40;;
23804;SDS011;12083;52.098;7.582;2022-09-09T07:43:59;6.80;;;2.07;;
23804;SDS011;12083;52.098;7.582;2022-09-09T07:46:28;9.17;;;1.83;;
23804;SDS011;12083;52.098;7.582;2022-09-09T07:48:55;4.70;;;2.43;;
23804;SDS011;12083;52.098;7.582;2022-09-09T07:51:27;4.63;;;2.07;;
23804;SDS011;12083;52.098;7.582;2022-09-09T07:53:56;4.30;;;2.20;;
23804;SDS011;12083;52.098;7.582;2022-09-09T07:56:23;9.40;;;2.17;;
23804;SDS011;12083;52.098;7.582;2022-09-09T07:58:50;9.80;;;2.07;;
23804;SDS011;12083;52.098;7.582;2022-09-09T08:01:22;7.40;;;2.27;;
23804;SDS011;12083;52.098;7.582;2022-09-09T08:03:54;9.63;;;2.30;;
23804;SDS011;12083;52.098;7.582;2022-09-09T08:06:24;11.87;;;2.60;;
23804;SDS011;12083;52.098;7.582;2022-09-09T08:08:52;6.40;;;1.53;;
23804;SDS011;12083;52.098;7.582;2022-09-09T08:11:20;4.97;;;2.10;;
23804;SDS011;12083;52.098;7.582;2022-09-09T08:13:48;6.17;;;1.70;;
23804;SDS011;12083;52.098;7.582;2022-09-09T08:16:16;7.40;;;2.37;;
23804;SDS011;12083;52.098;7.582;2022-09-09T08:18:43;13.57;;;2.47;;
23804;SDS011;12083;52.098;7.582;2022-09-09T08:21:14;4.67;;;2.27;;
23804;SDS011;12083;52.098;7.582;2022-09-09T08:23:45;11.73;;;1.73;;
23804;SDS011;12083;52.098;7.582;2022-09-09T08:28:42;7.60;;;2.00;;
23804;SDS011;12083;52.098;7.582;2022-09-09T08:31:10;11.33;;;2.07;;
23804;SDS011;12083;52.098;7.582;2022-09-09T08:33:38;10.63;;;2.20;;
23804;SDS011;12083;52.098;7.582;2022-09-09T08:36:09;3.43;;;1.73;;
23804;SDS011;12083;52.098;7.582;2022-09-09T08:38:36;9.73;;;1.77;;
23804;SDS011;12083;52.098;7.582;2022-09-09T08:43:47;7.10;;;1.73;;
23804;SDS011;12083;52.098;7.582;2022-09-09T08:46:19;7.20;;;2.33;;
23804;SDS011;12083;52.098;7.582;2022-09-09T08:49:23;18.17;;;2.37;;
23804;SDS011;12083;52.098;7.582;2022-09-09T08:52:09;10.20;;;2.53;;
23804;SDS011;12083;52.098;7.582;2022-09-09T08:54:41;4.80;;;2.10;;
23804;SDS011;12083;52.098;7.582;2022-09-09T08:59:44;7.50;;;1.77;;
23804;SDS011;12083;52.098;7.582;2022-09-09T09:07:46;8.80;;;2.47;;
23804;SDS011;12083;52.098;7.582;2022-09-09T09:10:33;16.63;;;3.23;;
23804;SDS011;12083;52.098;7.582;2022-09-09T09:13:35;6.77;;;2.97;;
23804;SDS011;12083;52.098;7.582;2022-09-09T09:16:17;5.90;;;2.40;;
23804;SDS011;12083;52.098;7.582;2022-09-09T09:18:52;5.30;;;1.53;;
23804;SDS011;12083;52.098;7.582;2022-09-09T09:26:45;9.20;;;1.90;;
23804;SDS011;12083;52.098;7.582;2022-09-09T09:29:12;3.33;;;1.43;;
23804;SDS011;12083;52.098;7.582;2022-09-09T09:31:45;12.77;;;2.40;;
23804;SDS011;12083;52.098;7.582;2022-09-09T09:34:16;8.00;;;1.80;;
23804;SDS011;12083;52.098;7.582;2022-09-09T09:36:44;15.87;;;2.10;;
23804;SDS011;12083;52.098;7.582;2022-09-09T09:39:30;6.00;;;1.80;;
23804;SDS011;12083;52.098;7.582;2022-09-09T09:42:11;4.10;;;1.50;;
23804;SDS011;12083;52.098;7.582;2022-09-09T09:44:40;5.47;;;1.70;;
23804;SDS011;12083;52.098;7.582;2022-09-09T09:47:17;14.30;;;2.40;;
23804;SDS011;12083;52.098;7.582;2022-09-09T09:49:52;2.33;;;1.20;;
23804;SDS011;12083;52.098;7.582;2022-09-09T09:52:24;7.17;;;1.20;;
23804;SDS011;12083;52.098;7.582;2022-09-09T09:54:52;11.23;;;2.80;;
23804;SDS011;12083;52.098;7.582;2022-09-09T09:57:22;6.07;;;1.70;;
23804;SDS011;12083;52.098;7.582;2022-09-09T10:00:00;13.93;;;1.90;;
23804;SDS011;12083;52.098;7.582;2022-09-09T10:02:41;17.43;;;2.40;;
23804;SDS011;12083;52.098;7.582;2022-09-09T10:05:21;9.43;;;1.80;;
23804;SDS011;12083;52.098;7.582;2022-09-09T10:08:12;10.47;;;1.70;;
23804;SDS011;12083;52.098;7.582;2022-09-09T10:16:08;8.53;;;1.97;;
23804;SDS011;12083;52.098;7.582;2022-09-09T10:18:59;6.53;;;1.73;;
23804;SDS011;12083;52.098;7.582;2022-09-09T10:22:31;6.63;;;1.80;;
23804;SDS011;12083;52.098;7.582;2022-09-09T10:31:04;8.10;;;1.50;;
23804;SDS011;12083;52.098;7.582;2022-09-09T10:36:17;6.83;;;1.50;;
23804;SDS011;12083;52.098;7.582;2022-09-09T10:38:57;8.37;;;1.77;;
23804;SDS011;12083;52.098;7.582;2022-09-09T10:41:49;3.80;;;0.93;;
23804;SDS011;12083;52.098;7.582;2022-09-09T10:50:12;6.53;;;1.30;;
23804;SDS011;12083;52.098;7.582;2022-09-09T10:52:53;4.50;;;1.30;;
23804;SDS011;12083;52.098;7.582;2022-09-09T10:55:42;8.20;;;1.57;;
23804;SDS011;12083;52.098;7.582;2022-09-09T10:58:12;5.03;;;0.93;;
23804;SDS011;12083;52.098;7.582;2022-09-09T11:00:49;2.40;;;0.87;;
23804;SDS011;12083;52.098;7.582;2022-09-09T11:03:21;4.53;;;1.10;;
23804;SDS011;12083;52.098;7.582;2022-09-09T11:05:57;8.00;;;1.53;;
23804;SDS011;12083;52.098;7.582;2022-09-09T11:08:29;6.73;;;1.20;;
23804;SDS011;12083;52.098;7.582;2022-09-09T11:11:16;3.03;;;1.10;;
23804;SDS011;12083;52.098;7.582;2022-09-09T11:16:30;10.40;;;1.53;;
23804;SDS011;12083;52.098;7.582;2022-09-09T11:19:11;3.10;;;1.20;;
23804;SDS011;12083;52.098;7.582;2022-09-09T11:21:45;3.97;;;1.03;;
23804;SDS011;12083;52.098;7.582;2022-09-09T11:24:21;2.70;;;1.10;;
23804;SDS011;12083;52.098;7.582;2022-09-09T11:26:50;4.40;;;1.70;;
23804;SDS011;12083;52.098;7.582;2022-09-09T11:29:38;2.43;;;1.00;;
23804;SDS011;12083;52.098;7.582;2022-09-09T11:40:30;2.97;;;1.10;;
23804;SDS011;12083;52.098;7.582;2022-09-09T11:43:31;2.63;;;1.10;;
23804;SDS011;12083;52.098;7.582;2022-09-09T11:45:53;2.93;;;1.00;;
23804;SDS011;12083;52.098;7.582;2022-09-09T11:51:08;5.70;;;1.30;;
23804;SDS011;12083;52.098;7.582;2022-09-09T11:53:47;5.17;;;1.60;;
23804;SDS011;12083;52.098;7.582;2022-09-09T11:56:23;4.50;;;1.83;;
23804;SDS011;12083;52.098;7.582;2022-09-09T12:01:38;5.03;;;1.63;;
23804;SDS011;12083;52.098;7.582;2022-09-09T12:04:10;9.40;;;1.20;;
23804;SDS011;12083;52.098;7.582;2022-09-09T12:09:23;6.23;;;1.47;;
23804;SDS011;12083;52.098;7.582;2022-09-09T12:19:41;8.97;;;2.00;;
23804;SDS011;12083;52.098;7.582;2022-09-09T12:22:33;6.77;;;1.33;;
23804;SDS011;12083;52.098;7.582;2022-09-09T12:27:40;2.00;;;0.93;;
23804;SDS011;12083;52.098;7.582;2022-09-09T12:30:22;3.97;;;1.13;;
23804;SDS011;12083;52.098;7.582;2022-09-09T12:33:02;6.93;;;1.47;;
23804;SDS011;12083;52.098;7.582;2022-09-09T12:35:33;3.10;;;0.80;;
23804;SDS011;12083;52.098;7.582;2022-09-09T12:38:01;3.20;;;0.77;;
23804;SDS011;12083;52.098;7.582;2022-09-09T12:40:30;8.33;;;1.47;;
23804;SDS011;12083;52.098;7.582;2022-09-09T12:43:00;3.57;;;1.10;;
23804;SDS011;12083;52.098;7.582;2022-09-09T12:45:28;9.53;;;1.30;;
23804;SDS011;12083;52.098;7.582;2022-09-09T12:50:29;5.30;;;1.07;;
23804;SDS011;12083;52.098;7.582;2022-09-09T12:53:31;2.20;;;1.00;;
23804;SDS011;12083;52.098;7.582;2022-09-09T12:56:19;2.90;;;0.80;;
23804;SDS011;12083;52.098;7.582;2022-09-09T12:58:51;1.87;;;0.70;;
23804;SDS011;12083;52.098;7.582;2022-09-09T13:01:20;3.23;;;1.00;;
23804;SDS011;12083;52.098;7.582;2022-09-09T13:03:48;2.50;;;1.10;;
23804;SDS011;12083;52.098;7.582;2022-09-09T13:06:24;4.67;;;1.10;;
23804;SDS011;12083;52.098;7.582;2022-09-09T13:08:52;4.87;;;0.97;;
23804;SDS011;12083;52.098;7.582;2022-09-09T13:11:23;6.60;;;0.87;;
23804;SDS011;12083;52.098;7.582;2022-09-09T13:13:56;1.83;;;0.97;;
23804;SDS011;12083;52.098;7.582;2022-09-09T13:16:30;3.70;;;1.17;;
23804;SDS011;12083;52.098;7.582;2022-09-09T13:18:59;3.60;;;1.33;;
23804;SDS011;12083;52.098;7.582;2022-09-09T13:21:37;3.80;;;1.00;;
23804;SDS011;12083;52.098;7.582;2022-09-09T13:24:04;3.23;;;0.97;;
23804;SDS011;12083;52.098;7.582;2022-09-09T13:26:59;3.80;;;1.10;;
23804;SDS011;12083;52.098;7.582;2022-09-09T13:29:29;2.10;;;1.13;;
23804;SDS011;12083;52.098;7.582;2022-09-09T13:32:06;3.53;;;0.90;;
23804;SDS011;12083;52.098;7.582;2022-09-09T13:34:49;2.30;;;0.93;;
23804;SDS011;12083;52.098;7.582;2022-09-09T13:39:53;7.83;;;1.40;;
23804;SDS011;12083;52.098;7.582;2022-09-09T13:42:26;3.33;;;1.03;;
23804;SDS011;12083;52.098;7.582;2022-09-09T13:44:55;1.77;;;0.90;;
23804;SDS011;12083;52.098;7.582;2022-09-09T13:47:26;2.03;;;0.90;;
23804;SDS011;12083;52.098;7.582;2022-09-09T13:49:55;4.60;;;1.10;;
23804;SDS011;12083;52.098;7.582;2022-09-09T13:52:21;3.40;;;0.60;;
23804;SDS011;12083;52.098;7.582;2022-09-09T13:54:48;3.90;;;0.97;;
23804;SDS011;12083;52.098;7.582;2022-09-09T13:57:18;2.00;;;0.80;;
23804;SDS011;12083;52.098;7.582;2022-09-09T13:59:46;0.70;;;0.60;;
23804;SDS011;12083;52.098;7.582;2022-09-09T14:02:12;5.03;;;0.80;;
23804;SDS011;12083;52.098;7.582;2022-09-09T14:04:39;2.83;;;0.80;;
23804;SDS011;12083;52.098;7.582;2022-09-09T14:07:08;1.67;;;0.70;;
23804;SDS011;12083;52.098;7.582;2022-09-09T14:09:37;0.87;;;0.87;;
23804;SDS011;12083;52.098;7.582;2022-09-09T14:12:04;1.17;;;0.67;;
23804;SDS011;12083;52.098;7.582;2022-09-09T14:14:30;2.33;;;0.83;;
23804;SDS011;12083;52.098;7.582;2022-09-09T14:16:55;4.13;;;0.70;;
23804;SDS011;12083;52.098;7.582;2022-09-09T14:19:21;1.40;;;0.80;;
23804;SDS011;12083;52.098;7.582;2022-09-09T14:21:46;4.53;;;1.10;;
23804;SDS011;12083;52.098;7.582;2022-09-09T14:24:12;1.20;;;0.80;;
23804;SDS011;12083;52.098;7.582;2022-09-09T14:26:37;0.93;;;0.80;;
23804;SDS011;12083;52.098;7.582;2022-09-09T14:29:03;7.83;;;1.43;;
23804;SDS011;12083;52.098;7.582;2022-09-09T14:31:29;2.10;;;1.00;;
23804;SDS011;12083;52.098;7.582;2022-09-09T14:33:55;4.63;;;1.30;;
23804;SDS011;12083;52.098;7.582;2022-09-09T14:36:20;3.10;;;1.00;;
23804;SDS011;12083;52.098;7.582;2022-09-09T14:38:46;1.17;;;0.80;;
23804;SDS011;12083;52.098;7.582;2022-09-09T14:41:13;6.27;;;1.77;;
23804;SDS011;12083;52.098;7.582;2022-09-09T14:43:42;8.07;;;1.53;;
23804;SDS011;12083;52.098;7.582;2022-09-09T14:46:08;4.43;;;0.90;;
23804;SDS011;12083;52.098;7.582;2022-09-09T14:48:36;2.40;;;1.10;;
23804;SDS011;12083;52.098;7.582;2022-09-09T14:51:08;2.73;;;0.93;;
23804;SDS011;12083;52.098;7.582;2022-09-09T14:53:34;2.20;;;0.90;;
23804;SDS011;12083;52.098;7.582;2022-09-09T14:58:35;3.33;;;1.00;;
23804;SDS011;12083;52.098;7.582;2022-09-09T15:01:03;2.83;;;1.23;;
23804;SDS011;12083;52.098;7.582;2022-09-09T15:03:35;3.90;;;1.40;;
23804;SDS011;12083;52.098;7.582;2022-09-09T15:06:11;0.93;;;0.83;;
23804;SDS011;12083;52.098;7.582;2022-09-09T15:08:39;2.43;;;0.70;;
23804;SDS011;12083;52.098;7.582;2022-09-09T15:11:06;4.50;;;1.10;;
23804;SDS011;12083;52.098;7.582;2022-09-09T15:13:33;2.50;;;1.13;;
23804;SDS011;12083;52.098;7.582;2022-09-09T15:16:10;2.43;;;0.90;;
23804;SDS011;12083;52.098;7.582;2022-09-09T15:18:40;4.67;;;1.17;;
23804;SDS011;12083;52.098;7.582;2022-09-09T15:21:14;1.10;;;0.60;;
23804;SDS011;12083;52.098;7.582;2022-09-09T15:23:41;4.70;;;1.00;;
23804;SDS011;12083;52.098;7.582;2022-09-09T15:26:08;4.13;;;1.30;;
23804;SDS011;12083;52.098;7.582;2022-09-09T15:28:34;2.50;;;0.93;;
23804;SDS011;12083;52.098;7.582;2022-09-09T15:31:44;5.20;;;0.80;;
23804;SDS011;12083;52.098;7.582;2022-09-09T15:33:54;4.30;;;0.90;;
23804;SDS011;12083;52.098;7.582;2022-09-09T15:38:54;2.93;;;1.03;;
23804;SDS011;12083;52.098;7.582;2022-09-09T15:41:21;1.60;;;0.63;;
23804;SDS011;12083;52.098;7.582;2022-09-09T15:43:48;4.90;;;1.00;;
23804;SDS011;12083;52.098;7.582;2022-09-09T15:48:49;2.20;;;0.70;;
23804;SDS011;12083;52.098;7.582;2022-09-09T15:51:16;1.37;;;0.73;;
23804;SDS011;12083;52.098;7.582;2022-09-09T15:53:41;4.73;;;0.57;;
23804;SDS011;12083;52.098;7.582;2022-09-09T15:56:08;8.57;;;1.27;;
23804;SDS011;12083;52.098;7.582;2022-09-09T15:58:34;2.00;;;1.13;;
23804;SDS011;12083;52.098;7.582;2022-09-09T16:01:02;7.90;;;1.00;;
23804;SDS011;12083;52.098;7.582;2022-09-09T16:03:33;3.27;;;1.13;;
23804;SDS011;12083;52.098;7.582;2022-09-09T16:05:59;4.50;;;0.80;;
23804;SDS011;12083;52.098;7.582;2022-09-09T16:08:25;3.30;;;0.80;;
23804;SDS011;12083;52.098;7.582;2022-09-09T16:11:03;9.27;;;1.90;;
23804;SDS011;12083;52.098;7.582;2022-09-09T16:13:34;2.77;;;0.80;;
23804;SDS011;12083;52.098;7.582;2022-09-09T16:16:00;3.13;;;0.70;;
23804;SDS011;12083;52.098;7.582;2022-09-09T16:18:28;1.63;;;1.00;;
23804;SDS011;12083;52.098;7.582;2022-09-09T16:23:46;4.37;;;1.10;;
23804;SDS011;12083;52.098;7.582;2022-09-09T16:26:14;5.03;;;1.10;;
23804;SDS011;12083;52.098;7.582;2022-09-09T16:28:40;3.13;;;1.03;;
23804;SDS011;12083;52.098;7.582;2022-09-09T16:31:13;5.07;;;1.27;;
23804;SDS011;12083;52.098;7.582;2022-09-09T16:33:42;1.30;;;1.00;;
23804;SDS011;12083;52.098;7.582;2022-09-09T16:36:10;1.57;;;1.07;;
23804;SDS011;12083;52.098;7.582;2022-09-09T16:38:37;6.10;;;1.33;;
23804;SDS011;12083;52.098;7.582;2022-09-09T16:41:03;2.80;;;0.90;;
23804;SDS011;12083;52.098;7.582;2022-09-09T16:43:33;2.70;;;0.90;;
23804;SDS011;12083;52.098;7.582;2022-09-09T16:46:00;4.40;;;1.27;;
23804;SDS011;12083;52.098;7.582;2022-09-09T16:48:27;8.63;;;1.00;;
23804;SDS011;12083;52.098;7.582;2022-09-09T16:51:04;2.17;;;1.67;;
23804;SDS011;12083;52.098;7.582;2022-09-09T16:53:36;1.50;;;0.93;;
23804;SDS011;12083;52.098;7.582;2022-09-09T16:56:08;3.70;;;1.07;;
23804;SDS011;12083;52.098;7.582;2022-09-09T16:58:38;2.87;;;1.60;;
23804;SDS011;12083;52.098;7.582;2022-09-09T17:01:04;8.80;;;3.40;;
23804;SDS011;12083;52.098;7.582;2022-09-09T17:03:30;5.83;;;1.30;;
23804;SDS011;12083;52.098;7.582;2022-09-09T17:05:58;4.33;;;0.90;;
23804;SDS011;12083;52.098;7.582;2022-09-09T17:08:28;6.07;;;1.20;;
23804;SDS011;12083;52.098;7.582;2022-09-09T17:10:55;5.37;;;1.07;;
23804;SDS011;12083;52.098;7.582;2022-09-09T17:13:21;1.30;;;0.80;;
23804;SDS011;12083;52.098;7.582;2022-09-09T17:15:47;7.77;;;1.10;;
23804;SDS011;12083;52.098;7.582;2022-09-09T17:18:12;5.57;;;0.87;;
23804;SDS011;12083;52.098;7.582;2022-09-09T17:20:39;4.10;;;1.20;;
23804;SDS011;12083;52.098;7.582;2022-09-09T17:23:07;3.77;;;0.80;;
23804;SDS011;12083;52.098;7.582;2022-09-09T17:25:33;2.93;;;0.90;;
23804;SDS011;12083;52.098;7.582;2022-09-09T17:27:59;1.67;;;1.03;;
23804;SDS011;12083;52.098;7.582;2022-09-09T17:30:25;9.43;;;2.03;;
23804;SDS011;12083;52.098;7.582;2022-09-09T17:32:52;5.90;;;1.23;;
23804;SDS011;12083;52.098;7.582;2022-09-09T17:35:18;4.27;;;1.40;;
23804;SDS011;12083;52.098;7.582;2022-09-09T17:37:44;3.67;;;1.07;;
23804;SDS011;12083;52.098;7.582;2022-09-09T17:40:10;1.80;;;1.07;;
23804;SDS011;12083;52.098;7.582;2022-09-09T17:42:36;5.50;;;2.23;;
23804;SDS011;12083;52.098;7.582;2022-09-09T17:45:02;7.43;;;1.47;;
23804;SDS011;12083;52.098;7.582;2022-09-09T17:47:28;5.30;;;1.10;;